KRBL

Red Bluff Municipal Airport

Red Bluff, California, USA
METAR KRBL 232254Z AUTO 00000KT 10SM FEW038 12/06 A3022 RMK AO2 SLP232 T01220061
Observed Flight Rules
Jan-23 @ 22:54 UTC (22 minutes ago) Visual Flight Rules
Wind Visibility Clouds
Calm 10 miles
  • Few at 3,800' AGL
Temperatures Readings
Current 12°C / 54°F
Dewpoint 6°C / 43°F
Humidity 67%
Altimeter 30.22" Hg
Pressure 1023.2 hPa
Elevation 104
METAR KRBL 232254Z AUTO 00000KT 10SM FEW038 12/06 A3022 RMK AO2 SLP232 T01220061
Observed Flight Rules
Jan-23 @ 22:54 UTC
(22 minutes ago)
VFR
Wind Visibility
Calm 10 miles
Clouds
  • Few at 3,800' AGL
Temperature Dewpoint
12°C / 54°F 6°C / 43°F
Humidity Altimeter Pressure
67% 30.22" Hg 1023.2 hPa